Palm Shores, Florida
Current Conditions -  °F | °C
As of 4:58 PM on Friday 31 Oct 2014 (Local Time) from KCOF Reporting Station
Clear Clear  
Wind Chill: 79°   Ceiling: Unl
Heat Index: 79°   Visibility: 10mi
Dew Point: 53°   Wind: 14mph
Humidity: 39%   Direction: 270°W
Pressure: 29.77"   Gusts: NA
Location:  28.2259°N, 80.6951°W
Report Text: KCOF 312058Z AUTO 27012KT 10SM CLR 26/11 A2977 RMK AO2 SLP085 T02620114 55003
Loading
Personal Weather Stations






























Interactive Weather Map
Tropical Storm Tracking
New forecast layout! Learn more

10-Day Weather Forecast

Advertisements
Track Severe Weather on mobile